sensor_id;sensor_type;location;lat;lon;timestamp;P1;durP1;ratioP1;P2;durP2;ratioP2
56181;SDS011;51963;46.052;14.544;2023-03-01T00:00:39;27.67;;;12.45;;
56181;SDS011;51963;46.052;14.544;2023-03-01T00:03:05;25.83;;;12.70;;
56181;SDS011;51963;46.052;14.544;2023-03-01T00:05:31;30.23;;;14.07;;
56181;SDS011;51963;46.052;14.544;2023-03-01T00:07:57;27.90;;;13.48;;
56181;SDS011;51963;46.052;14.544;2023-03-01T00:10:24;26.80;;;13.40;;
56181;SDS011;51963;46.052;14.544;2023-03-01T00:12:49;30.63;;;14.15;;
56181;SDS011;51963;46.052;14.544;2023-03-01T00:15:15;27.73;;;13.63;;
56181;SDS011;51963;46.052;14.544;2023-03-01T00:17:41;29.15;;;14.32;;
56181;SDS011;51963;46.052;14.544;2023-03-01T00:20:07;30.95;;;12.40;;
56181;SDS011;51963;46.052;14.544;2023-03-01T00:22:36;27.23;;;12.82;;
56181;SDS011;51963;46.052;14.544;2023-03-01T00:25:02;31.42;;;14.38;;
56181;SDS011;51963;46.052;14.544;2023-03-01T00:27:28;28.60;;;13.52;;
56181;SDS011;51963;46.052;14.544;2023-03-01T00:29:54;28.15;;;13.82;;
56181;SDS011;51963;46.052;14.544;2023-03-01T00:32:20;24.58;;;12.63;;
56181;SDS011;51963;46.052;14.544;2023-03-01T00:34:45;28.30;;;14.70;;
56181;SDS011;51963;46.052;14.544;2023-03-01T00:37:22;31.38;;;14.98;;
56181;SDS011;51963;46.052;14.544;2023-03-01T00:39:49;28.23;;;12.45;;
56181;SDS011;51963;46.052;14.544;2023-03-01T00:42:15;29.50;;;14.05;;
56181;SDS011;51963;46.052;14.544;2023-03-01T00:44:41;28.20;;;13.93;;
56181;SDS011;51963;46.052;14.544;2023-03-01T00:47:07;28.42;;;13.55;;
56181;SDS011;51963;46.052;14.544;2023-03-01T00:49:33;30.02;;;14.43;;
56181;SDS011;51963;46.052;14.544;2023-03-01T00:51:59;28.83;;;13.75;;
56181;SDS011;51963;46.052;14.544;2023-03-01T00:54:25;27.02;;;13.43;;
56181;SDS011;51963;46.052;14.544;2023-03-01T00:56:51;29.50;;;14.15;;
56181;SDS011;51963;46.052;14.544;2023-03-01T00:59:16;26.45;;;14.15;;
56181;SDS011;51963;46.052;14.544;2023-03-01T01:01:42;30.77;;;14.25;;
56181;SDS011;51963;46.052;14.544;2023-03-01T01:04:09;27.70;;;13.68;;
56181;SDS011;51963;46.052;14.544;2023-03-01T01:06:37;28.85;;;14.13;;
56181;SDS011;51963;46.052;14.544;2023-03-01T01:09:08;27.60;;;13.40;;
56181;SDS011;51963;46.052;14.544;2023-03-01T01:11:34;29.60;;;13.85;;
56181;SDS011;51963;46.052;14.544;2023-03-01T01:14:02;28.50;;;13.73;;
56181;SDS011;51963;46.052;14.544;2023-03-01T01:16:28;26.65;;;13.05;;
56181;SDS011;51963;46.052;14.544;2023-03-01T01:18:55;28.55;;;13.57;;
56181;SDS011;51963;46.052;14.544;2023-03-01T01:21:22;29.63;;;12.80;;
56181;SDS011;51963;46.052;14.544;2023-03-01T01:23:49;30.23;;;14.70;;
56181;SDS011;51963;46.052;14.544;2023-03-01T01:26:20;29.35;;;13.90;;
56181;SDS011;51963;46.052;14.544;2023-03-01T01:28:55;30.02;;;14.32;;
56181;SDS011;51963;46.052;14.544;2023-03-01T01:31:21;25.02;;;13.40;;
56181;SDS011;51963;46.052;14.544;2023-03-01T01:33:51;29.23;;;14.35;;
56181;SDS011;51963;46.052;14.544;2023-03-01T01:36:18;30.20;;;14.32;;
56181;SDS011;51963;46.052;14.544;2023-03-01T01:38:44;29.55;;;13.98;;
56181;SDS011;51963;46.052;14.544;2023-03-01T01:41:10;28.83;;;13.70;;
56181;SDS011;51963;46.052;14.544;2023-03-01T01:43:41;26.77;;;13.43;;
56181;SDS011;51963;46.052;14.544;2023-03-01T01:49:06;29.02;;;14.77;;
56181;SDS011;51963;46.052;14.544;2023-03-01T01:51:40;35.65;;;15.63;;
56181;SDS011;51963;46.052;14.544;2023-03-01T01:54:10;34.80;;;15.43;;
56181;SDS011;51963;46.052;14.544;2023-03-01T01:56:40;33.38;;;15.73;;
56181;SDS011;51963;46.052;14.544;2023-03-01T01:59:12;34.30;;;15.18;;
56181;SDS011;51963;46.052;14.544;2023-03-01T02:01:38;29.88;;;14.95;;
56181;SDS011;51963;46.052;14.544;2023-03-01T02:04:04;31.05;;;14.98;;
56181;SDS011;51963;46.052;14.544;2023-03-01T02:06:39;32.30;;;14.63;;
56181;SDS011;51963;46.052;14.544;2023-03-01T02:09:12;30.88;;;14.68;;
56181;SDS011;51963;46.052;14.544;2023-03-01T02:11:40;38.25;;;15.88;;
56181;SDS011;51963;46.052;14.544;2023-03-01T02:14:06;36.00;;;15.77;;
56181;SDS011;51963;46.052;14.544;2023-03-01T02:16:32;31.10;;;15.38;;
56181;SDS011;51963;46.052;14.544;2023-03-01T02:18:58;32.13;;;15.50;;
56181;SDS011;51963;46.052;14.544;2023-03-01T02:26:40;29.10;;;14.07;;
56181;SDS011;51963;46.052;14.544;2023-03-01T02:29:10;27.83;;;14.30;;
56181;SDS011;51963;46.052;14.544;2023-03-01T02:31:36;30.95;;;14.40;;
56181;SDS011;51963;46.052;14.544;2023-03-01T02:34:08;32.33;;;14.95;;
56181;SDS011;51963;46.052;14.544;2023-03-01T02:36:56;30.88;;;14.13;;
56181;SDS011;51963;46.052;14.544;2023-03-01T02:39:31;30.83;;;15.18;;
56181;SDS011;51963;46.052;14.544;2023-03-01T02:42:14;35.10;;;15.02;;
56181;SDS011;51963;46.052;14.544;2023-03-01T02:44:45;28.48;;;13.40;;
56181;SDS011;51963;46.052;14.544;2023-03-01T02:47:11;29.13;;;13.70;;
56181;SDS011;51963;46.052;14.544;2023-03-01T02:49:36;33.55;;;14.93;;
56181;SDS011;51963;46.052;14.544;2023-03-01T02:57:01;30.08;;;13.35;;
56181;SDS011;51963;46.052;14.544;2023-03-01T02:59:31;31.30;;;14.25;;
56181;SDS011;51963;46.052;14.544;2023-03-01T03:02:06;28.50;;;14.00;;
56181;SDS011;51963;46.052;14.544;2023-03-01T03:04:33;32.72;;;14.63;;
56181;SDS011;51963;46.052;14.544;2023-03-01T03:06:59;30.48;;;15.02;;
56181;SDS011;51963;46.052;14.544;2023-03-01T03:09:25;29.90;;;14.48;;
56181;SDS011;51963;46.052;14.544;2023-03-01T03:11:50;32.65;;;14.55;;
56181;SDS011;51963;46.052;14.544;2023-03-01T03:14:16;33.03;;;14.23;;
56181;SDS011;51963;46.052;14.544;2023-03-01T03:16:48;30.65;;;14.98;;
56181;SDS011;51963;46.052;14.544;2023-03-01T03:19:15;34.05;;;15.75;;
56181;SDS011;51963;46.052;14.544;2023-03-01T03:21:41;37.70;;;15.57;;
56181;SDS011;51963;46.052;14.544;2023-03-01T03:24:07;35.00;;;15.93;;
56181;SDS011;51963;46.052;14.544;2023-03-01T03:26:34;34.60;;;16.10;;
56181;SDS011;51963;46.052;14.544;2023-03-01T03:28:59;30.73;;;14.80;;
56181;SDS011;51963;46.052;14.544;2023-03-01T03:31:25;38.22;;;15.27;;
56181;SDS011;51963;46.052;14.544;2023-03-01T03:33:51;35.40;;;15.18;;
56181;SDS011;51963;46.052;14.544;2023-03-01T03:36:17;35.65;;;15.13;;
56181;SDS011;51963;46.052;14.544;2023-03-01T03:38:45;33.37;;;15.17;;
56181;SDS011;51963;46.052;14.544;2023-03-01T03:41:11;29.25;;;14.55;;
56181;SDS011;51963;46.052;14.544;2023-03-01T03:43:38;33.88;;;15.13;;
56181;SDS011;51963;46.052;14.544;2023-03-01T03:46:06;32.20;;;14.33;;
56181;SDS011;51963;46.052;14.544;2023-03-01T03:48:42;37.97;;;17.42;;
56181;SDS011;51963;46.052;14.544;2023-03-01T03:51:10;38.97;;;16.58;;
56181;SDS011;51963;46.052;14.544;2023-03-01T03:53:37;36.05;;;16.70;;
56181;SDS011;51963;46.052;14.544;2023-03-01T03:56:03;35.00;;;15.32;;
56181;SDS011;51963;46.052;14.544;2023-03-01T03:58:29;36.95;;;16.95;;
56181;SDS011;51963;46.052;14.544;2023-03-01T04:00:56;38.50;;;17.35;;
56181;SDS011;51963;46.052;14.544;2023-03-01T04:03:23;38.05;;;16.83;;
56181;SDS011;51963;46.052;14.544;2023-03-01T04:05:50;38.10;;;16.95;;
56181;SDS011;51963;46.052;14.544;2023-03-01T04:08:16;38.45;;;17.17;;
56181;SDS011;51963;46.052;14.544;2023-03-01T04:10:47;36.58;;;17.02;;
56181;SDS011;51963;46.052;14.544;2023-03-01T04:13:16;35.95;;;16.80;;
56181;SDS011;51963;46.052;14.544;2023-03-01T04:15:45;41.30;;;16.63;;
56181;SDS011;51963;46.052;14.544;2023-03-01T04:18:16;40.05;;;15.93;;
56181;SDS011;51963;46.052;14.544;2023-03-01T04:20:43;37.63;;;16.80;;
56181;SDS011;51963;46.052;14.544;2023-03-01T04:23:11;34.40;;;15.45;;
56181;SDS011;51963;46.052;14.544;2023-03-01T04:25:51;41.67;;;16.98;;
56181;SDS011;51963;46.052;14.544;2023-03-01T04:28:24;39.38;;;16.98;;
56181;SDS011;51963;46.052;14.544;2023-03-01T04:30:53;39.63;;;17.23;;
56181;SDS011;51963;46.052;14.544;2023-03-01T04:33:20;39.58;;;17.98;;
56181;SDS011;51963;46.052;14.544;2023-03-01T04:35:45;33.63;;;16.98;;
56181;SDS011;51963;46.052;14.544;2023-03-01T04:38:14;39.63;;;18.77;;
56181;SDS011;51963;46.052;14.544;2023-03-01T04:40:41;41.88;;;18.48;;
56181;SDS011;51963;46.052;14.544;2023-03-01T04:43:08;38.17;;;17.60;;
56181;SDS011;51963;46.052;14.544;2023-03-01T04:45:35;42.05;;;18.40;;
56181;SDS011;51963;46.052;14.544;2023-03-01T04:48:01;40.40;;;18.05;;
56181;SDS011;51963;46.052;14.544;2023-03-01T04:50:28;37.80;;;18.42;;
56181;SDS011;51963;46.052;14.544;2023-03-01T04:52:57;40.65;;;18.27;;
56181;SDS011;51963;46.052;14.544;2023-03-01T04:55:27;39.05;;;17.33;;
56181;SDS011;51963;46.052;14.544;2023-03-01T04:57:54;43.45;;;18.23;;
56181;SDS011;51963;46.052;14.544;2023-03-01T05:00:21;40.78;;;18.60;;
56181;SDS011;51963;46.052;14.544;2023-03-01T05:05:19;42.67;;;19.00;;
56181;SDS011;51963;46.052;14.544;2023-03-01T05:07:46;45.38;;;19.55;;
56181;SDS011;51963;46.052;14.544;2023-03-01T05:10:12;42.88;;;19.70;;
56181;SDS011;51963;46.052;14.544;2023-03-01T05:12:40;42.20;;;19.03;;
56181;SDS011;51963;46.052;14.544;2023-03-01T05:15:06;47.47;;;19.65;;
56181;SDS011;51963;46.052;14.544;2023-03-01T05:17:33;45.67;;;20.17;;
56181;SDS011;51963;46.052;14.544;2023-03-01T05:19:59;44.42;;;20.13;;
56181;SDS011;51963;46.052;14.544;2023-03-01T05:22:26;44.38;;;19.05;;
56181;SDS011;51963;46.052;14.544;2023-03-01T05:24:52;42.85;;;19.73;;
56181;SDS011;51963;46.052;14.544;2023-03-01T05:27:19;46.42;;;19.60;;
56181;SDS011;51963;46.052;14.544;2023-03-01T05:29:47;42.65;;;18.75;;
56181;SDS011;51963;46.052;14.544;2023-03-01T05:32:13;41.67;;;18.90;;
56181;SDS011;51963;46.052;14.544;2023-03-01T05:34:40;39.78;;;19.15;;
56181;SDS011;51963;46.052;14.544;2023-03-01T05:37:11;43.78;;;18.40;;
56181;SDS011;51963;46.052;14.544;2023-03-01T05:39:38;40.05;;;18.98;;
56181;SDS011;51963;46.052;14.544;2023-03-01T05:42:04;42.10;;;19.50;;
56181;SDS011;51963;46.052;14.544;2023-03-01T05:44:30;43.13;;;18.67;;
56181;SDS011;51963;46.052;14.544;2023-03-01T05:46:56;40.72;;;18.02;;
56181;SDS011;51963;46.052;14.544;2023-03-01T05:49:22;44.90;;;18.85;;
56181;SDS011;51963;46.052;14.544;2023-03-01T05:51:52;41.13;;;18.95;;
56181;SDS011;51963;46.052;14.544;2023-03-01T05:54:19;41.60;;;18.58;;
56181;SDS011;51963;46.052;14.544;2023-03-01T05:56:45;42.85;;;17.95;;
56181;SDS011;51963;46.052;14.544;2023-03-01T05:59:11;37.80;;;18.15;;
56181;SDS011;51963;46.052;14.544;2023-03-01T06:01:40;42.90;;;18.67;;
56181;SDS011;51963;46.052;14.544;2023-03-01T06:04:06;45.47;;;18.98;;
56181;SDS011;51963;46.052;14.544;2023-03-01T06:06:38;40.55;;;19.13;;
56181;SDS011;51963;46.052;14.544;2023-03-01T06:09:47;37.40;;;17.55;;
56181;SDS011;51963;46.052;14.544;2023-03-01T06:12:13;40.55;;;18.55;;
56181;SDS011;51963;46.052;14.544;2023-03-01T06:14:39;40.25;;;17.50;;
56181;SDS011;51963;46.052;14.544;2023-03-01T06:17:05;36.50;;;16.75;;
56181;SDS011;51963;46.052;14.544;2023-03-01T06:19:30;41.95;;;17.05;;
56181;SDS011;51963;46.052;14.544;2023-03-01T06:21:56;40.60;;;17.80;;
56181;SDS011;51963;46.052;14.544;2023-03-01T06:24:21;38.58;;;18.08;;
56181;SDS011;51963;46.052;14.544;2023-03-01T06:26:47;39.22;;;17.80;;
56181;SDS011;51963;46.052;14.544;2023-03-01T06:29:13;34.47;;;16.63;;
56181;SDS011;51963;46.052;14.544;2023-03-01T06:31:39;42.65;;;18.08;;
56181;SDS011;51963;46.052;14.544;2023-03-01T06:34:05;36.67;;;17.08;;
56181;SDS011;51963;46.052;14.544;2023-03-01T06:36:31;37.03;;;17.35;;
56181;SDS011;51963;46.052;14.544;2023-03-01T06:38:56;45.42;;;17.95;;
56181;SDS011;51963;46.052;14.544;2023-03-01T06:41:22;39.00;;;17.30;;
56181;SDS011;51963;46.052;14.544;2023-03-01T06:43:48;37.63;;;16.30;;
56181;SDS011;51963;46.052;14.544;2023-03-01T06:46:13;37.42;;;16.52;;
56181;SDS011;51963;46.052;14.544;2023-03-01T06:48:39;33.00;;;15.07;;
56181;SDS011;51963;46.052;14.544;2023-03-01T06:51:05;37.53;;;16.83;;
56181;SDS011;51963;46.052;14.544;2023-03-01T06:53:31;38.67;;;16.48;;
56181;SDS011;51963;46.052;14.544;2023-03-01T06:55:57;38.13;;;18.77;;
56181;SDS011;51963;46.052;14.544;2023-03-01T06:58:27;40.03;;;18.40;;
56181;SDS011;51963;46.052;14.544;2023-03-01T07:00:53;42.80;;;17.67;;
56181;SDS011;51963;46.052;14.544;2023-03-01T07:03:22;42.75;;;18.60;;
56181;SDS011;51963;46.052;14.544;2023-03-01T07:05:50;40.65;;;18.95;;
56181;SDS011;51963;46.052;14.544;2023-03-01T07:08:19;44.72;;;18.33;;
56181;SDS011;51963;46.052;14.544;2023-03-01T07:10:47;44.65;;;18.23;;
56181;SDS011;51963;46.052;14.544;2023-03-01T07:13:14;35.67;;;16.73;;
56181;SDS011;51963;46.052;14.544;2023-03-01T07:15:40;36.90;;;17.45;;
56181;SDS011;51963;46.052;14.544;2023-03-01T07:18:05;35.47;;;17.52;;
56181;SDS011;51963;46.052;14.544;2023-03-01T07:20:31;37.72;;;16.85;;
56181;SDS011;51963;46.052;14.544;2023-03-01T07:22:57;47.05;;;20.90;;
56181;SDS011;51963;46.052;14.544;2023-03-01T07:25:29;35.65;;;16.95;;
56181;SDS011;51963;46.052;14.544;2023-03-01T07:27:55;39.65;;;18.15;;
56181;SDS011;51963;46.052;14.544;2023-03-01T07:30:21;42.05;;;18.48;;
56181;SDS011;51963;46.052;14.544;2023-03-01T07:32:47;37.60;;;17.75;;
56181;SDS011;51963;46.052;14.544;2023-03-01T07:35:13;39.50;;;18.02;;
56181;SDS011;51963;46.052;14.544;2023-03-01T07:37:40;36.72;;;16.80;;
56181;SDS011;51963;46.052;14.544;2023-03-01T07:40:06;42.13;;;17.98;;
56181;SDS011;51963;46.052;14.544;2023-03-01T07:42:32;37.00;;;15.13;;
56181;SDS011;51963;46.052;14.544;2023-03-01T07:44:58;36.55;;;17.60;;
56181;SDS011;51963;46.052;14.544;2023-03-01T07:47:23;38.42;;;17.30;;
56181;SDS011;51963;46.052;14.544;2023-03-01T07:49:49;35.35;;;16.92;;
56181;SDS011;51963;46.052;14.544;2023-03-01T07:52:17;38.38;;;17.77;;
56181;SDS011;51963;46.052;14.544;2023-03-01T07:54:48;38.47;;;17.85;;
56181;SDS011;51963;46.052;14.544;2023-03-01T07:57:13;41.25;;;18.20;;
56181;SDS011;51963;46.052;14.544;2023-03-01T07:59:39;38.35;;;18.13;;
56181;SDS011;51963;46.052;14.544;2023-03-01T08:02:05;39.10;;;17.42;;
56181;SDS011;51963;46.052;14.544;2023-03-01T08:04:31;31.85;;;15.95;;
56181;SDS011;51963;46.052;14.544;2023-03-01T08:06:58;37.10;;;16.02;;
56181;SDS011;51963;46.052;14.544;2023-03-01T08:09:24;38.28;;;16.85;;
56181;SDS011;51963;46.052;14.544;2023-03-01T08:11:50;33.55;;;15.65;;
56181;SDS011;51963;46.052;14.544;2023-03-01T08:14:15;39.22;;;17.13;;
56181;SDS011;51963;46.052;14.544;2023-03-01T08:16:41;33.30;;;14.90;;
56181;SDS011;51963;46.052;14.544;2023-03-01T08:19:09;31.92;;;15.00;;
56181;SDS011;51963;46.052;14.544;2023-03-01T08:21:36;31.77;;;15.35;;
56181;SDS011;51963;46.052;14.544;2023-03-01T08:24:05;35.50;;;15.02;;
56181;SDS011;51963;46.052;14.544;2023-03-01T08:26:35;32.35;;;16.17;;
56181;SDS011;51963;46.052;14.544;2023-03-01T08:29:02;34.08;;;16.73;;
56181;SDS011;51963;46.052;14.544;2023-03-01T08:31:29;34.47;;;16.48;;
56181;SDS011;51963;46.052;14.544;2023-03-01T08:33:58;35.78;;;16.38;;
56181;SDS011;51963;46.052;14.544;2023-03-01T08:36:26;31.05;;;14.85;;
56181;SDS011;51963;46.052;14.544;2023-03-01T08:38:54;33.70;;;16.33;;
56181;SDS011;51963;46.052;14.544;2023-03-01T08:41:26;35.78;;;16.60;;
56181;SDS011;51963;46.052;14.544;2023-03-01T08:43:54;30.98;;;14.98;;
56181;SDS011;51963;46.052;14.544;2023-03-01T08:46:34;32.28;;;15.00;;
56181;SDS011;51963;46.052;14.544;2023-03-01T08:49:08;32.05;;;15.45;;
56181;SDS011;51963;46.052;14.544;2023-03-01T09:04:12;38.60;;;18.75;;
56181;SDS011;51963;46.052;14.544;2023-03-01T09:06:40;33.77;;;17.07;;
56181;SDS011;51963;46.052;14.544;2023-03-01T09:09:05;34.45;;;16.15;;
56181;SDS011;51963;46.052;14.544;2023-03-01T09:11:33;34.85;;;16.55;;
56181;SDS011;51963;46.052;14.544;2023-03-01T09:13:59;34.63;;;16.38;;
56181;SDS011;51963;46.052;14.544;2023-03-01T09:16:24;33.63;;;15.95;;
56181;SDS011;51963;46.052;14.544;2023-03-01T09:18:51;35.35;;;16.73;;
56181;SDS011;51963;46.052;14.544;2023-03-01T09:21:18;35.22;;;17.00;;
56181;SDS011;51963;46.052;14.544;2023-03-01T09:23:46;32.75;;;15.88;;
56181;SDS011;51963;46.052;14.544;2023-03-01T09:26:13;37.35;;;16.42;;
56181;SDS011;51963;46.052;14.544;2023-03-01T09:28:47;33.30;;;17.05;;
56181;SDS011;51963;46.052;14.544;2023-03-01T09:31:16;39.10;;;17.53;;
56181;SDS011;51963;46.052;14.544;2023-03-01T09:33:45;35.57;;;17.50;;
56181;SDS011;51963;46.052;14.544;2023-03-01T09:36:13;32.15;;;15.50;;
56181;SDS011;51963;46.052;14.544;2023-03-01T09:38:41;34.38;;;15.93;;
56181;SDS011;51963;46.052;14.544;2023-03-01T09:43:49;36.65;;;15.45;;
56181;SDS011;51963;46.052;14.544;2023-03-01T09:46:22;36.55;;;16.23;;
56181;SDS011;51963;46.052;14.544;2023-03-01T09:51:28;34.40;;;15.95;;
56181;SDS011;51963;46.052;14.544;2023-03-01T09:53:57;36.97;;;15.25;;
56181;SDS011;51963;46.052;14.544;2023-03-01T09:59:15;29.23;;;14.60;;
56181;SDS011;51963;46.052;14.544;2023-03-01T10:06:45;31.05;;;14.88;;
56181;SDS011;51963;46.052;14.544;2023-03-01T10:09:34;27.30;;;13.95;;
56181;SDS011;51963;46.052;14.544;2023-03-01T10:12:30;30.77;;;14.38;;
56181;SDS011;51963;46.052;14.544;2023-03-01T10:17:33;31.08;;;14.20;;
56181;SDS011;51963;46.052;14.544;2023-03-01T10:20:46;30.98;;;15.15;;
56181;SDS011;51963;46.052;14.544;2023-03-01T10:22:59;29.58;;;13.38;;
56181;SDS011;51963;46.052;14.544;2023-03-01T10:26:00;28.83;;;13.25;;
56181;SDS011;51963;46.052;14.544;2023-03-01T10:28:40;24.88;;;12.70;;
56181;SDS011;51963;46.052;14.544;2023-03-01T10:31:13;31.13;;;14.65;;
56181;SDS011;51963;46.052;14.544;2023-03-01T10:33:53;33.60;;;13.85;;
56181;SDS011;51963;46.052;14.544;2023-03-01T10:36:21;28.70;;;13.73;;
56181;SDS011;51963;46.052;14.544;2023-03-01T10:38:51;31.27;;;14.90;;
56181;SDS011;51963;46.052;14.544;2023-03-01T10:41:20;28.60;;;14.05;;
56181;SDS011;51963;46.052;14.544;2023-03-01T10:43:53;29.20;;;14.23;;
56181;SDS011;51963;46.052;14.544;2023-03-01T10:46:28;32.60;;;15.20;;
56181;SDS011;51963;46.052;14.544;2023-03-01T10:51:32;30.92;;;13.60;;
56181;SDS011;51963;46.052;14.544;2023-03-01T10:53:58;29.80;;;13.23;;
56181;SDS011;51963;46.052;14.544;2023-03-01T10:56:24;26.25;;;12.65;;
56181;SDS011;51963;46.052;14.544;2023-03-01T10:58:58;33.38;;;13.68;;
56181;SDS011;51963;46.052;14.544;2023-03-01T11:01:32;28.80;;;13.02;;
56181;SDS011;51963;46.052;14.544;2023-03-01T11:06:36;27.17;;;13.38;;
56181;SDS011;51963;46.052;14.544;2023-03-01T11:09:24;27.50;;;12.95;;
56181;SDS011;51963;46.052;14.544;2023-03-01T11:11:53;31.88;;;13.70;;
56181;SDS011;51963;46.052;14.544;2023-03-01T11:16:49;25.50;;;11.88;;
56181;SDS011;51963;46.052;14.544;2023-03-01T11:19:24;28.75;;;13.25;;
56181;SDS011;51963;46.052;14.544;2023-03-01T11:24:36;29.52;;;12.70;;
56181;SDS011;51963;46.052;14.544;2023-03-01T11:27:04;24.88;;;12.23;;
56181;SDS011;51963;46.052;14.544;2023-03-01T11:29:42;28.08;;;12.50;;
56181;SDS011;51963;46.052;14.544;2023-03-01T11:32:13;28.30;;;12.82;;
56181;SDS011;51963;46.052;14.544;2023-03-01T11:34:47;28.98;;;13.00;;
56181;SDS011;51963;46.052;14.544;2023-03-01T11:37:33;25.95;;;12.00;;
56181;SDS011;51963;46.052;14.544;2023-03-01T11:40:13;26.92;;;12.80;;
56181;SDS011;51963;46.052;14.544;2023-03-01T11:42:45;25.33;;;12.45;;
56181;SDS011;51963;46.052;14.544;2023-03-01T11:45:17;26.95;;;12.77;;
56181;SDS011;51963;46.052;14.544;2023-03-01T11:50:44;24.50;;;11.80;;
56181;SDS011;51963;46.052;14.544;2023-03-01T11:56:05;27.63;;;12.52;;
56181;SDS011;51963;46.052;14.544;2023-03-01T12:09:38;28.58;;;12.88;;
56181;SDS011;51963;46.052;14.544;2023-03-01T12:23:28;31.25;;;12.35;;
56181;SDS011;51963;46.052;14.544;2023-03-01T12:42:58;25.92;;;11.40;;
56181;SDS011;51963;46.052;14.544;2023-03-01T12:45:52;23.50;;;11.05;;
56181;SDS011;51963;46.052;14.544;2023-03-01T12:51:32;23.17;;;10.88;;
56181;SDS011;51963;46.052;14.544;2023-03-01T12:54:02;22.83;;;10.98;;
56181;SDS011;51963;46.052;14.544;2023-03-01T12:56:37;23.33;;;10.98;;
56181;SDS011;51963;46.052;14.544;2023-03-01T12:59:12;26.38;;;11.23;;
56181;SDS011;51963;46.052;14.544;2023-03-01T13:01:55;23.98;;;11.13;;
56181;SDS011;51963;46.052;14.544;2023-03-01T13:04:45;26.60;;;11.43;;
56181;SDS011;51963;46.052;14.544;2023-03-01T13:07:30;22.65;;;10.18;;
56181;SDS011;51963;46.052;14.544;2023-03-01T13:10:06;25.50;;;10.77;;
56181;SDS011;51963;46.052;14.544;2023-03-01T13:12:43;28.55;;;11.77;;
56181;SDS011;51963;46.052;14.544;2023-03-01T13:17:53;22.17;;;10.00;;
56181;SDS011;51963;46.052;14.544;2023-03-01T13:20:22;26.05;;;11.93;;
56181;SDS011;51963;46.052;14.544;2023-03-01T13:26:07;28.42;;;12.25;;
56181;SDS011;51963;46.052;14.544;2023-03-01T13:33:45;27.25;;;12.43;;
56181;SDS011;51963;46.052;14.544;2023-03-01T13:36:13;26.75;;;12.40;;
56181;SDS011;51963;46.052;14.544;2023-03-01T13:38:58;25.20;;;12.07;;
56181;SDS011;51963;46.052;14.544;2023-03-01T13:41:51;24.70;;;11.38;;
56181;SDS011;51963;46.052;14.544;2023-03-01T13:44:22;26.17;;;12.43;;
56181;SDS011;51963;46.052;14.544;2023-03-01T13:49:46;25.50;;;12.20;;
56181;SDS011;51963;46.052;14.544;2023-03-01T13:52:30;22.55;;;10.93;;
56181;SDS011;51963;46.052;14.544;2023-03-01T13:55:07;22.70;;;10.57;;
56181;SDS011;51963;46.052;14.544;2023-03-01T13:57:44;28.73;;;11.75;;
56181;SDS011;51963;46.052;14.544;2023-03-01T14:03:17;24.05;;;10.93;;
56181;SDS011;51963;46.052;14.544;2023-03-01T14:05:57;20.38;;;10.25;;
56181;SDS011;51963;46.052;14.544;2023-03-01T14:08:35;24.30;;;10.05;;
56181;SDS011;51963;46.052;14.544;2023-03-01T14:19:23;22.08;;;9.52;;
56181;SDS011;51963;46.052;14.544;2023-03-01T14:21:59;18.88;;;8.77;;
56181;SDS011;51963;46.052;14.544;2023-03-01T14:24:46;16.90;;;8.20;;
56181;SDS011;51963;46.052;14.544;2023-03-01T14:27:15;20.08;;;9.10;;
56181;SDS011;51963;46.052;14.544;2023-03-01T14:30:03;22.98;;;9.70;;
56181;SDS011;51963;46.052;14.544;2023-03-01T14:32:37;19.27;;;8.73;;
56181;SDS011;51963;46.052;14.544;2023-03-01T14:35:18;20.77;;;8.90;;
56181;SDS011;51963;46.052;14.544;2023-03-01T14:37:46;20.92;;;8.48;;
56181;SDS011;51963;46.052;14.544;2023-03-01T14:40:22;17.60;;;7.55;;
56181;SDS011;51963;46.052;14.544;2023-03-01T14:42:51;17.52;;;8.38;;
56181;SDS011;51963;46.052;14.544;2023-03-01T14:45:18;17.95;;;8.88;;
56181;SDS011;51963;46.052;14.544;2023-03-01T14:47:45;24.58;;;9.07;;
56181;SDS011;51963;46.052;14.544;2023-03-01T14:52:47;19.05;;;8.70;;
56181;SDS011;51963;46.052;14.544;2023-03-01T14:57:47;18.92;;;8.30;;
56181;SDS011;51963;46.052;14.544;2023-03-01T15:00:20;18.00;;;8.15;;
56181;SDS011;51963;46.052;14.544;2023-03-01T15:02:48;18.00;;;7.75;;
56181;SDS011;51963;46.052;14.544;2023-03-01T15:05:52;16.83;;;7.97;;
56181;SDS011;51963;46.052;14.544;2023-03-01T15:08:19;19.25;;;7.93;;
56181;SDS011;51963;46.052;14.544;2023-03-01T15:10:57;16.77;;;8.10;;
56181;SDS011;51963;46.052;14.544;2023-03-01T15:13:41;16.58;;;6.82;;
56181;SDS011;51963;46.052;14.544;2023-03-01T15:18:34;13.68;;;7.03;;
56181;SDS011;51963;46.052;14.544;2023-03-01T15:21:07;15.32;;;7.00;;
56181;SDS011;51963;46.052;14.544;2023-03-01T15:23:49;15.85;;;7.22;;
56181;SDS011;51963;46.052;14.544;2023-03-01T15:28:49;15.80;;;7.63;;
56181;SDS011;51963;46.052;14.544;2023-03-01T15:31:18;16.55;;;7.82;;
56181;SDS011;51963;46.052;14.544;2023-03-01T15:33:45;14.75;;;6.97;;
56181;SDS011;51963;46.052;14.544;2023-03-01T15:38:57;14.02;;;6.93;;
56181;SDS011;51963;46.052;14.544;2023-03-01T15:44:24;18.27;;;7.15;;
56181;SDS011;51963;46.052;14.544;2023-03-01T15:46:50;14.57;;;7.25;;
56181;SDS011;51963;46.052;14.544;2023-03-01T15:49:24;12.65;;;6.38;;
56181;SDS011;51963;46.052;14.544;2023-03-01T15:52:03;17.95;;;7.72;;
56181;SDS011;51963;46.052;14.544;2023-03-01T15:54:29;14.98;;;7.20;;
56181;SDS011;51963;46.052;14.544;2023-03-01T15:56:55;16.98;;;7.75;;
56181;SDS011;51963;46.052;14.544;2023-03-01T15:59:21;15.85;;;7.50;;
56181;SDS011;51963;46.052;14.544;2023-03-01T16:01:48;15.13;;;7.65;;
56181;SDS011;51963;46.052;14.544;2023-03-01T16:04:15;18.50;;;8.30;;
56181;SDS011;51963;46.052;14.544;2023-03-01T16:06:48;19.20;;;8.10;;
56181;SDS011;51963;46.052;14.544;2023-03-01T16:09:21;16.02;;;7.85;;
56181;SDS011;51963;46.052;14.544;2023-03-01T16:11:53;18.45;;;8.27;;
56181;SDS011;51963;46.052;14.544;2023-03-01T16:14:19;16.20;;;8.23;;
56181;SDS011;51963;46.052;14.544;2023-03-01T16:16:45;15.35;;;7.68;;
56181;SDS011;51963;46.052;14.544;2023-03-01T16:19:13;16.67;;;7.78;;
56181;SDS011;51963;46.052;14.544;2023-03-01T16:21:39;18.52;;;7.70;;
56181;SDS011;51963;46.052;14.544;2023-03-01T16:24:09;16.77;;;8.63;;
56181;SDS011;51963;46.052;14.544;2023-03-01T16:26:37;16.02;;;7.38;;
56181;SDS011;51963;46.052;14.544;2023-03-01T16:29:03;16.35;;;8.25;;
56181;SDS011;51963;46.052;14.544;2023-03-01T16:31:29;21.15;;;8.50;;
56181;SDS011;51963;46.052;14.544;2023-03-01T16:33:56;18.15;;;8.73;;
56181;SDS011;51963;46.052;14.544;2023-03-01T16:36:24;18.85;;;9.27;;
56181;SDS011;51963;46.052;14.544;2023-03-01T16:38:53;22.08;;;10.38;;
56181;SDS011;51963;46.052;14.544;2023-03-01T16:41:22;16.17;;;7.95;;
56181;SDS011;51963;46.052;14.544;2023-03-01T16:43:49;15.45;;;7.57;;
56181;SDS011;51963;46.052;14.544;2023-03-01T16:46:16;16.77;;;8.07;;
56181;SDS011;51963;46.052;14.544;2023-03-01T16:48:53;16.57;;;8.50;;